Flight Track Log - Related Links

Times and Time Zones

All times are in EDT time to prevent confusion due to time zone crossing. See the FDX1425 flight status page for this flight to view local times or setup timezone preferences in your user account.

Time Position Orientation Groundspeed Altitude Reporting Facility
EDT Latitude Longitude Course Direction KTS MPH feet Rate Location/Type
Sat 05:02:38 AM 35.0167 -89.9833 226° Southwest 150 173 1,000  Level KMEM
Sat 05:03:19 AM 34.9833 -89.9833 180° South 172 198 2,300 2,079 Climbing KMEM
Sat 05:04:19 AM 34.9167 -89.9833 180° South 266 306 4,500 2,368 Climbing KMEM
Sat 05:05:13 AM 34.8500 -89.9833 180° South 295 339 6,800 2,561 Climbing KMEM
Sat 05:06:56 AM 34.7064 -90.0058 187° South 332 382 11,200 2,393 Climbing Memphis Center
Sat 05:07:56 AM 34.6483 -90.1047 235° Southwest 344 396 13,300 2,300 Climbing Memphis Center
Sat 05:08:00 AM 34.5179 -90.4443 226° Southwest  Level FlightAware Approximate
Sat 05:08:56 AM 34.6025 -90.2208 244° Southwest 370 426 15,800  Level Memphis Center
Sat 05:09:56 AM 34.5525 -90.3394 243° Southwest 390 449 18,000 2,250 Climbing Memphis Center
Sat 05:10:56 AM 34.5003 -90.4581 242° Southwest 402 463 20,300 2,050 Climbing Memphis Center
Sat 05:11:56 AM 34.4083 -90.5511 220° Southwest 408 470 22,100 1,650 Climbing Memphis Center
Sat 05:12:56 AM 34.3247 -90.6314 218° Southwest 419 482 23,600 1,550 Climbing Memphis Center
Sat 05:13:56 AM 34.2264 -90.7189 216° Southwest 435 501 25,200 1,500 Climbing Memphis Center
Sat 05:14:56 AM 34.1261 -90.8064 216° Southwest 446 513 26,600 1,250 Climbing Memphis Center
Sat 05:15:56 AM 34.0192 -90.9008 216° Southwest 469 540 27,700 1,150 Climbing Memphis Center
Sat 05:16:56 AM 33.9144 -90.9956 217° Southwest 475 547 28,900 1,200 Climbing Memphis Center
Sat 05:17:56 AM 33.7992 -91.1022 218° Southwest 487 560 30,100 1,100 Climbing Memphis Center
Sat 05:18:56 AM 33.6961 -91.1886 215° Southwest 487 560 31,100 1,050 Climbing Memphis Center
Sat 05:19:56 AM 33.5850 -91.2897 217° Southwest 492 566 32,200 1,177 Climbing Memphis Center
Sat 05:21:34 AM 33.3975 -91.4550 216° Southwest 491 565 34,200 506 Climbing Fort Worth Center
Sat 05:27:27 AM 32.7370 -92.0270 216° Southwest 497 572 36,000 269 Climbing FlightAware ADS-B
Sat 05:28:16 AM 32.6500 -92.1010 216° Southwest 498 573 36,000  Level FlightAware ADS-B
Sat 05:29:02 AM 32.5620 -92.1760 216° Southwest 497 572 36,000  Level FlightAware ADS-B
Sat 05:29:36 AM 32.4910 -92.2370 216° Southwest 498 573 36,000  Level FlightAware ADS-B
Sat 05:30:10 AM 32.4360 -92.2850 216° Southwest 499 574 36,000  Level FlightAware ADS-B
Sat 05:30:53 AM 32.3480 -92.3580 215° Southwest 500 575 36,000  Level FlightAware ADS-B
Sat 05:31:29 AM 32.2880 -92.4090 216° Southwest 499 574 36,000  Level FlightAware ADS-B
Sat 05:32:05 AM 32.2260 -92.4620 216° Southwest 499 574 36,000  Level FlightAware ADS-B
Sat 05:32:39 AM 32.1550 -92.5220 216° Southwest 500 575 36,000  Level FlightAware ADS-B
Sat 05:33:20 AM 32.0760 -92.5890 216° Southwest 501 577 36,000  Level FlightAware ADS-B
Sat 05:33:50 AM 32.0210 -92.6360 216° Southwest 500 575 36,000  Level FlightAware ADS-B
Sat 05:34:28 AM 31.9600 -92.6890 216° Southwest 499 574 36,000  Level FlightAware ADS-B
Sat 05:35:02 AM 31.8880 -92.7600 220° Southwest 499 574 36,000  Level FlightAware ADS-B
Sat 05:35:36 AM 31.8350 -92.8100 219° Southwest 499 574 36,000  Level FlightAware ADS-B
Sat 05:36:13 AM 31.7630 -92.8810 220° Southwest 499 574 36,000  Level FlightAware ADS-B
Sat 05:36:43 AM 31.7090 -92.9330 219° Southwest 499 574 36,000  Level FlightAware ADS-B
Sat 05:37:31 AM 31.6310 -93.0080 219° Southwest 499 574 36,000  Level FlightAware ADS-B
Sat 05:38:08 AM 31.5740 -93.0620 219° Southwest 499 574 36,000  Level FlightAware ADS-B
Sat 05:38:59 AM 31.4700 -93.1620 219° Southwest 500 575 36,000  Level FlightAware ADS-B
Sat 05:39:35 AM 31.4150 -93.2140 219° Southwest 500 575 36,000  Level FlightAware ADS-B
Sat 05:39:41 AM 31.3853 -93.2441 221° Southwest 499 574 36,000  Level FlightAware ADS-B
Sat 05:40:23 AM 31.3110 -93.3144 219° Southwest 499 574 36,000 -202 Level FlightAware ADS-B
Sat 05:41:10 AM 31.2249 -93.3963 219° Southwest 501 577 35,700 -1,215 Descending FlightAware ADS-B
Sat 05:41:42 AM 31.1682 -93.4511 220° Southwest 502 578 34,400 -2,710 Descending FlightAware ADS-B
Sat 05:42:12 AM 31.1140 -93.5028 219° Southwest 502 578 32,900 -2,677 Descending FlightAware ADS-B
Sat 05:42:47 AM 31.0521 -93.5608 219° Southwest 497 572 31,500 -2,400 Descending FlightAware ADS-B
Sat 05:43:17 AM 30.9983 -93.6122 219° Southwest 484 557 30,300 -2,303 Descending FlightAware ADS-B
Sat 05:44:26 AM 30.8811 -93.7230 219° Southwest 462 532 27,700 -2,220 Descending FlightAware ADS-B
Sat 05:44:57 AM 30.8306 -93.7706 219° Southwest 449 517 26,600 -2,156 Descending FlightAware ADS-B
Sat 05:45:30 AM 30.7772 -93.8203 219° Southwest 442 509 25,400 -2,156 Descending FlightAware ADS-B
Sat 05:46:01 AM 30.7299 -93.8649 219° Southwest 433 498 24,300 -2,164 Descending FlightAware ADS-B
Sat 05:46:31 AM 30.6824 -93.9100 219° Southwest 426 490 23,200 -2,066 Descending FlightAware ADS-B
Sat 05:47:02 AM 30.6364 -93.9525 218° Southwest 416 479 22,200 -2,066 Descending FlightAware ADS-B
Sat 05:47:32 AM 30.5913 -93.9944 219° Southwest 412 474 21,100 -2,200 Descending FlightAware ADS-B
Sat 05:48:02 AM 30.5463 -94.0368 219° Southwest 404 465 20,000 -2,045 Descending FlightAware ADS-B
Sat 05:48:16 AM 30.5262 -94.0563 220° Southwest 401 461 19,600 -1,826 Descending FlightAware ADS-B
Sat 05:48:25 AM 30.5147 -94.0700 226° Southwest 400 460 19,300 -1,579 Descending FlightAware ADS-B
Sat 05:48:35 AM 30.5027 -94.0864 230° Southwest 397 457 19,100 -878 Descending FlightAware ADS-B
Sat 05:49:06 AM 30.4723 -94.1401 237° Southwest 400 460 18,700 -1,582 Descending FlightAware ADS-B
Sat 05:50:06 AM 30.4119 -94.2504 237° Southwest 394 453 16,700 -2,033 Descending FlightAware ADS-B
Sat 05:51:07 AM 30.3527 -94.3564 237° Southwest 379 436 14,600 -1,983 Descending FlightAware ADS-B
Sat 05:52:07 AM 30.2964 -94.4567 237° Southwest 362 417 12,700 -1,867 Descending FlightAware ADS-B
Sat 05:52:37 AM 30.2692 -94.5053 237° Southwest 354 407 11,800 -1,429 Descending FlightAware ADS-B
Sat 05:53:10 AM 30.2410 -94.5550 237° Southwest 337 388 11,200 -952 Descending FlightAware ADS-B
Sat 05:53:40 AM 30.2161 -94.5999 237° Southwest 314 361 10,800 -1,106 Descending FlightAware ADS-B
Sat 05:55:31 AM 30.1350 -94.7458 238° Southwest 281 323 8,600 -1,190 Descending FlightAware ADS-B
Sat 05:55:46 AM 30.1241 -94.7647 236° Southwest 278 320 8,300 -1,161 Descending FlightAware ADS-B
Sat 05:56:02 AM 30.1133 -94.7834 236° Southwest 276 318 8,000 -955 Descending FlightAware ADS-B
Sat 05:57:14 AM 30.0665 -94.8681 236° Southwest 230 265 6,900 -850 Descending FlightAware ADS-B
Sat 05:57:55 AM 30.0418 -94.9085 236° Southwest 230 265 6,400 -882 Descending FlightAware ADS-B
Sat 05:58:22 AM 30.0258 -94.9373 237° Southwest 228 262 5,900 -1,000 Descending FlightAware ADS-B
Sat 05:59:07 AM 30.0007 -94.9835 237° Southwest 223 257 5,200 -980 Descending FlightAware ADS-B
Sat 05:59:11 AM 29.9986 -94.9875 239° Southwest 224 258 5,100 -1,714 Descending FlightAware ADS-B
Sat 05:59:14 AM 29.9972 -94.9906 242° Southwest 225 259 5,000 -1,043 Descending FlightAware ADS-B
Sat 05:59:34 AM 29.9941 -95.0149 265° West 232 267 4,700 -1,031 Descending FlightAware ADS-B
Sat 06:00:18 AM 29.9933 -95.0690 270° West 223 257 3,900 -783 Descending FlightAware ADS-B
Sat 06:00:43 AM 29.9934 -95.0976 270° West 205 236 3,800 -333 Descending FlightAware ADS-B
Sat 06:00:54 AM 29.9934 -95.1094 270° West 197 227 3,700 -1,071 Descending FlightAware ADS-B
Sat 06:01:11 AM 29.9935 -95.1262 270° West 195 224 3,300 -1,313 Descending FlightAware ADS-B
Sat 06:01:26 AM 29.9934 -95.1428 270° West 192 221 3,000 -1,043 Descending FlightAware ADS-B
Sat 06:01:57 AM 29.9934 -95.1737 270° West 182 209 2,500 -889 Descending FlightAware ADS-B
Sat 06:02:20 AM 29.9935 -95.1945 270° West 160 184 2,200 -682 Descending FlightAware ADS-B
Sat 06:02:41 AM 29.9935 -95.2113 271° West 144 166 2,000 -789 Descending FlightAware ADS-B
Sat 06:02:58 AM 29.9934 -95.2242 269° West 142 163 1,700 -727 Descending FlightAware ADS-B
Sat 06:03:14 AM 29.9934 -95.2363 270° West 141 162 1,600 -563 Descending FlightAware ADS-B
Sat 06:03:30 AM 29.9934 -95.2477 270° West 142 163 1,400 -774 Descending FlightAware ADS-B
Sat 06:03:45 AM 29.9935 -95.2590 271° West 138 159 1,200 -800 Descending FlightAware ADS-B
Sat 06:04:00 AM 29.9934 -95.2707 269° West 137 158 1,000 -800 Descending FlightAware ADS-B
Sat 06:04:15 AM 29.9934 -95.2809 270° West 136 157 800 -750 Descending FlightAware ADS-B
Sat 06:04:32 AM 29.9934 -95.2940 270° West 136 157 600 -750 Descending FlightAware ADS-B
Sat 06:04:47 AM 29.9934 -95.3050 270° West 136 157 400 -800 Descending FlightAware ADS-B
Sat 06:05:02 AM 29.9934 -95.3160 270° West 137 158 200 -800 Descending FlightAware ADS-B
Sat 06:05:35 AM 29.9934 -95.3387 270° West 92 106 -364 Descending FlightAware ADS-B

Login

Don't have an account? Register now (free) for customized features, flight alerts, and more!